This is the latest recevied weather packets stored in our database for station/object LRBS. If no packets are shown the sender has not sent any weather packets the latest 10 day(s).
| Time | Temp. | Humidity | Pressure | Rain* | Wind** | Luminosity | Snow |
|---|---|---|---|---|---|---|---|
| 1777855770 | 7.22° C | 71% | 1018 hPa | - | - | - | - |
| 1777854794 | 7.22° C | 71% | 1018 hPa | - | - | - | - |
| 1777853894 | 7.22° C | 71% | 1018 hPa | - | - | - | - |
| 1777852995 | 7.22° C | 71% | 1018 hPa | - | - | - | - |
| 1777852134 | 7.22° C | 71% | 1018 hPa | - | - | - | - |
| 1777851194 | 7.22° C | 71% | 1018 hPa | - | - | - | - |
| 1777850298 | 7.22° C | 71% | 1018 hPa | - | - | - | - |
| 1777849406 | 7.22° C | 71% | 1018 hPa | - | - | - | - |
| 1777848494 | 7.22° C | 71% | 1018 hPa | - | - | - | - |
| 1777847606 | 7.22° C | 71% | 1018 hPa | - | - | - | - |
| 1777846711 | 7.78° C | 66% | 1018 hPa | - | - | - | - |
| 1777845836 | 7.78° C | 66% | 1018 hPa | - | - | - | - |
| 1777844901 | 7.78° C | 66% | 1019 hPa | - | - | - | - |
| 1777843994 | 7.78° C | 66% | 1019 hPa | - | - | - | - |
| 1777843095 | 7.78° C | 66% | 1019 hPa | - | - | - | - |
| 1777842194 | 7.78° C | 66% | 1019 hPa | - | - | - | - |
| 1777841301 | 8.89° C | 62% | 1019 hPa | - | - | - | - |
| 1777840470 | 8.89° C | 62% | 1019 hPa | - | - | - | - |
| 1777839494 | 7.78° C | 71% | 1019 hPa | - | - | - | - |
| 1777838603 | 7.78° C | 71% | 1019 hPa | - | - | - | - |
| 1777837719 | 8.89° C | 71% | 1019 hPa | - | - | - | - |
| 1777836870 | 8.89° C | 71% | 1019 hPa | - | - | - | - |
| 1777835895 | 10° C | 62% | 1019 hPa | - | - | - | - |
| 1777834995 | 10° C | 62% | 1019 hPa | - | - | - | - |
| 1777834170 | 12.22° C | 54% | 1019 hPa | - | - | - | - |
* Rain since midnight (hover to see other rain measurements)
** Current wind speed in m/s (hover to see current wind gust speed)